Time;durP1;ratioP1;P1;durP2;ratioP2;P2;SDS_P1;SDS_P2;PMS_P1;PMS_P2;Temp;Humidity;BMP_temperature;BMP_pressure;BME280_temperature;BME280_humidity;BME280_pressure;Samples;Min_cycle;Max_cycle;Signal;HPM_P1;HPM_P2
2022/10/30 00:00:14;;;;;;;111.28;55.40;;;;;;;7.52;69.72;100842.03;5068336;28;20028;-27
2022/10/30 00:02:39;;;;;;;103.78;51.78;;;;;;;7.25;69.89;100843.41;5068087;28;20119;-28
2022/10/30 00:05:05;;;;;;;100.93;51.97;;;;;;;7.12;70.39;100820.13;5068183;28;20075;-27
2022/10/30 00:07:30;;;;;;;97.30;52.08;;;;;;;7.66;69.44;100843.03;5068622;28;20064;-27
2022/10/30 00:09:56;;;;;;;90.88;48.63;;;;;;;7.63;69.61;100830.97;5068351;28;20024;-26
2022/10/30 00:12:21;;;;;;;76.78;43.00;;;;;;;7.53;69.68;100845.50;5068010;28;20484;-26
2022/10/30 00:14:46;;;;;;;86.97;46.55;;;;;;;7.61;69.47;100843.59;5068222;28;20031;-30
2022/10/30 00:17:12;;;;;;;68.78;37.38;;;;;;;7.71;69.25;100845.19;5050080;28;20097;-26
2022/10/30 00:19:37;;;;;;;70.55;37.80;;;;;;;7.59;69.86;100828.84;5050324;28;20089;-25
2022/10/30 00:22:03;;;;;;;73.45;39.88;;;;;;;7.51;69.65;100832.41;5068191;28;20176;-29
2022/10/30 00:24:28;;;;;;;70.97;38.08;;;;;;;7.43;69.53;100813.91;5067708;28;20032;-26
2022/10/30 00:26:54;;;;;;;70.20;39.63;;;;;;;7.71;69.18;100831.91;5068169;28;20056;-27
2022/10/30 00:29:22;;;;;;;71.35;34.75;;;;;;;7.77;68.72;100836.50;5068022;28;20105;-27
2022/10/30 00:31:48;;;;;;;54.95;33.47;;;;;;;7.68;68.56;100829.59;5049658;28;20475;-26
2022/10/30 00:34:13;;;;;;;56.53;31.98;;;;;;;7.39;69.42;100833.84;5049831;28;20484;-25
2022/10/30 00:36:39;;;;;;;54.72;31.60;;;;;;;7.75;68.03;100823.38;5067825;28;20093;-29
2022/10/30 00:39:05;;;;;;;65.70;29.75;;;;;;;7.94;67.48;100822.03;5049579;28;20039;-28
2022/10/30 00:41:30;;;;;;;57.03;29.75;;;;;;;7.69;68.73;100825.94;5068018;28;20060;-31
2022/10/30 00:43:56;;;;;;;57.42;28.60;;;;;;;7.64;68.64;100818.50;5067510;28;20028;-26
2022/10/30 00:46:33;;;;;;;46.15;26.05;;;;;;;7.89;67.74;100808.47;5067370;28;20021;-28
2022/10/30 00:49:16;;;;;;;52.08;26.40;;;;;;;7.85;68.07;100815.16;5067776;28;20044;-25
2022/10/30 00:51:49;;;;;;;42.70;22.48;;;;;;;7.82;67.53;100824.28;5049499;28;20028;-28
2022/10/30 00:54:16;;;;;;;39.67;21.45;;;;;;;8.03;66.44;100815.63;5049270;28;20552;-28
2022/10/30 00:56:42;;;;;;;41.85;23.38;;;;;;;8.00;66.15;100810.66;5067440;28;20400;-27
2022/10/30 00:59:11;;;;;;;41.22;22.95;;;;;;;7.64;67.10;100813.19;5049468;28;20025;-25
2022/10/30 01:01:41;;;;;;;43.10;21.83;;;;;;;7.48;67.72;100800.94;5067490;28;20056;-29
2022/10/30 01:04:06;;;;;;;36.35;21.35;;;;;;;7.48;67.92;100798.28;5067311;28;20058;-26
2022/10/30 01:06:37;;;;;;;37.55;19.55;;;;;;;7.64;67.10;100782.19;5066959;28;20657;-26
2022/10/30 01:09:03;;;;;;;33.60;19.15;;;;;;;7.80;67.01;100799.75;5067079;28;20031;-27
2022/10/30 01:11:29;;;;;;;35.42;18.70;;;;;;;7.76;66.64;100777.22;5067191;28;20024;-26
2022/10/30 01:13:59;;;;;;;34.47;18.15;;;;;;;7.92;66.86;100786.84;5067481;28;20503;-28
2022/10/30 01:16:36;;;;;;;33.72;17.92;;;;;;;7.77;67.83;100801.97;5065801;28;20031;-29
2022/10/30 01:19:30;;;;;;;33.28;17.27;;;;;;;7.81;67.09;100785.47;5067211;28;20021;-26
2022/10/30 01:22:15;;;;;;;35.15;16.70;;;;;;;7.73;68.17;100792.72;5067478;28;20504;-28
2022/10/30 01:25:20;;;;;;;32.22;17.50;;;;;;;7.43;69.39;100793.50;5067295;28;20028;-28
2022/10/30 01:28:14;;;;;;;33.33;16.90;;;;;;;7.49;69.85;100781.34;5067039;28;20032;-30
2022/10/30 01:30:39;;;;;;;30.58;16.85;;;;;;;7.75;69.13;100799.50;5066700;28;20051;-27
2022/10/30 01:33:10;;;;;;;27.92;17.25;;;;;;;7.77;68.81;100796.66;5048985;28;20544;-25
2022/10/30 01:35:43;;;;;;;29.67;16.08;;;;;;;7.89;68.28;100786.41;5067225;28;20039;-25
2022/10/30 01:38:18;;;;;;;32.88;17.17;;;;;;;7.82;68.17;100786.31;5066934;28;20116;-28
2022/10/30 01:40:44;;;;;;;28.63;16.50;;;;;;;7.69;69.03;100786.13;5066845;28;20037;-27
2022/10/30 01:43:10;;;;;;;29.38;15.43;;;;;;;7.49;68.92;100770.72;5066964;28;20121;-26
2022/10/30 01:45:41;;;;;;;28.65;15.65;;;;;;;7.27;71.08;100783.03;5067077;28;20797;-26
2022/10/30 01:48:33;;;;;;;25.67;15.25;;;;;;;7.43;70.59;100784.72;5075546;28;20040;-28
2022/10/30 01:51:03;;;;;;;31.00;15.48;;;;;;;7.32;71.55;100772.72;5068767;28;20024;-27
2022/10/30 01:53:50;;;;;;;31.42;15.45;;;;;;;7.31;70.59;100772.88;5087161;28;20052;-25
2022/10/30 01:56:18;;;;;;;29.73;13.90;;;;;;;7.20;71.21;100777.63;5086642;28;20028;-30
2022/10/30 01:58:57;;;;;;;31.90;15.60;;;;;;;7.05;70.54;100758.19;5086951;28;20035;-26
2022/10/30 02:01:23;;;;;;;37.88;17.02;;;;;;;7.03;70.98;100760.22;5086569;28;20042;-25
2022/10/30 02:03:49;;;;;;;40.67;18.35;;;;;;;6.94;70.31;100737.41;5086969;28;20089;-29
2022/10/30 02:06:16;;;;;;;45.20;18.67;;;;;;;7.05;70.19;100752.91;5067853;28;20048;-27
2022/10/30 02:08:41;;;;;;;39.83;17.65;;;;;;;6.46;72.11;100744.69;5086808;28;20506;-27
2022/10/30 02:11:09;;;;;;;33.80;17.00;;;;;;;6.37;71.98;100750.03;5086792;28;20028;-26
2022/10/30 02:13:35;;;;;;;37.45;17.15;;;;;;;6.13;73.05;100751.00;5086697;28;20067;-27
2022/10/30 02:16:01;;;;;;;26.83;15.55;;;;;;;6.17;71.76;100748.81;5086619;28;20040;-26
2022/10/30 02:18:28;;;;;;;26.20;14.60;;;;;;;5.84;71.94;100736.53;5089781;28;20030;-26
2022/10/30 02:20:54;;;;;;;28.02;14.63;;;;;;;6.15;72.50;100729.63;5072561;28;20071;-25
2022/10/30 02:23:21;;;;;;;27.35;15.57;;;;;;;6.06;73.91;100743.91;5090473;28;20645;-25
2022/10/30 02:25:46;;;;;;;27.08;13.77;;;;;;;6.04;74.72;100733.50;5089236;28;20108;-27
2022/10/30 02:28:12;;;;;;;22.20;13.73;;;;;;;6.08;74.21;100739.28;5090528;28;20024;-27
2022/10/30 02:30:39;;;;;;;25.30;14.55;;;;;;;5.99;73.98;100734.03;5071797;28;20419;-28
2022/10/30 02:33:05;;;;;;;23.00;13.65;;;;;;;6.10;73.62;100737.28;5090454;28;20024;-25
2022/10/30 02:35:30;;;;;;;23.05;13.23;;;;;;;6.08;73.75;100749.88;5090658;28;20046;-25
2022/10/30 02:37:56;;;;;;;23.00;14.82;;;;;;;6.04;73.41;100726.38;5090496;28;20016;-25
2022/10/30 02:40:21;;;;;;;24.75;13.68;;;;;;;6.33;73.47;100748.72;5090476;28;20031;-26
2022/10/30 02:42:53;;;;;;;25.17;13.77;;;;;;;6.18;73.72;100729.28;5090273;28;20027;-26
2022/10/30 02:45:20;;;;;;;24.17;13.07;;;;;;;6.12;74.78;100724.69;5090397;28;20506;-26
2022/10/30 02:47:45;;;;;;;23.40;13.07;;;;;;;6.31;74.33;100750.72;5089214;28;20016;-25
2022/10/30 02:50:11;;;;;;;24.75;13.27;;;;;;;6.25;74.07;100762.03;5090001;28;20039;-25
2022/10/30 02:52:36;;;;;;;22.25;12.73;;;;;;;6.30;73.74;100738.50;5090368;28;20889;-29
2022/10/30 02:55:02;;;;;;;21.20;12.55;;;;;;;6.22;74.58;100746.50;5090281;28;20084;-30
2022/10/30 02:57:28;;;;;;;22.00;12.68;;;;;;;5.76;74.92;100746.31;5090290;28;20058;-30
2022/10/30 02:59:53;;;;;;;23.05;13.32;;;;;;;5.89;73.97;100738.66;5090052;28;20036;-27
2022/10/30 03:02:18;;;;;;;26.77;13.10;;;;;;;6.29;71.35;100747.44;5089834;28;20066;-26
2022/10/30 03:04:44;;;;;;;21.42;12.95;;;;;;;6.33;71.32;100732.84;5088400;28;20036;-25
2022/10/30 03:07:09;;;;;;;21.90;12.85;;;;;;;6.39;72.07;100755.97;5089875;28;20051;-29
2022/10/30 03:09:35;;;;;;;26.25;14.00;;;;;;;6.44;72.23;100740.41;5090113;28;20024;-26
2022/10/30 03:12:00;;;;;;;23.60;13.20;;;;;;;6.31;72.18;100744.63;5071704;28;20462;-27
2022/10/30 03:14:26;;;;;;;20.70;12.93;;;;;;;5.77;73.29;100742.69;5089684;28;20415;-28
2022/10/30 03:16:51;;;;;;;19.17;11.93;;;;;;;5.33;75.22;100725.44;5089893;28;20487;-26
2022/10/30 03:19:17;;;;;;;25.23;13.50;;;;;;;6.01;71.86;100745.25;5089980;28;20438;-28
2022/10/30 03:21:43;;;;;;;21.67;13.25;;;;;;;5.96;72.09;100713.16;5071715;28;20047;-28
2022/10/30 03:24:08;;;;;;;27.50;14.43;;;;;;;5.94;72.27;100722.25;5089729;28;20450;-30
2022/10/30 03:26:34;;;;;;;24.50;13.80;;;;;;;5.56;73.92;100741.41;5089299;28;20020;-27
2022/10/30 03:28:59;;;;;;;35.80;17.75;;;;;;;5.77;73.66;100747.97;5088104;28;20035;-28
2022/10/30 03:31:25;;;;;;;38.15;20.58;;;;;;;5.63;74.16;100757.44;5089572;28;20025;-28
2022/10/30 03:33:50;;;;;;;41.83;21.58;;;;;;;5.92;73.98;100751.53;5089559;28;20208;-26
2022/10/30 03:36:16;;;;;;;39.03;20.02;;;;;;;6.11;72.45;100754.81;5070998;28;20020;-29
2022/10/30 03:38:42;;;;;;;36.50;19.67;;;;;;;6.27;71.79;100746.78;5089317;28;20028;-27
2022/10/30 03:41:07;;;;;;;33.40;16.83;;;;;;;5.46;73.40;100730.19;5089505;28;20404;-25
2022/10/30 03:43:33;;;;;;;30.88;16.85;;;;;;;5.70;73.13;100741.69;5070618;28;20119;-25
2022/10/30 03:45:58;;;;;;;35.20;16.35;;;;;;;5.66;73.19;100756.25;5089611;28;20024;-28
2022/10/30 03:48:26;;;;;;;32.53;16.63;;;;;;;5.61;73.42;100736.44;5088839;28;20032;-26
2022/10/30 03:50:53;;;;;;;30.70;16.38;;;;;;;5.67;72.63;100731.47;5070457;28;20115;-26
2022/10/30 03:53:20;;;;;;;26.33;14.50;;;;;;;5.57;73.00;100729.81;5088956;28;20085;-26
2022/10/30 03:55:45;;;;;;;25.95;15.45;;;;;;;5.09;75.55;100755.38;5070662;28;20461;-26
2022/10/30 03:58:11;;;;;;;33.72;17.77;;;;;;;5.19;73.58;100753.38;5089042;28;20024;-29
2022/10/30 04:00:36;;;;;;;35.03;19.33;;;;;;;5.30;73.15;100756.69;5088234;28;20111;-27
2022/10/30 04:03:06;;;;;;;36.75;17.65;;;;;;;5.70;71.06;100747.00;5088874;28;20487;-27
2022/10/30 04:05:31;;;;;;;26.42;14.48;;;;;;;5.41;73.12;100727.22;5088646;28;20717;-25
2022/10/30 04:08:02;;;;;;;27.42;15.07;;;;;;;5.46;73.69;100735.50;5088630;28;20020;-26
2022/10/30 04:10:27;;;;;;;28.55;15.40;;;;;;;5.69;73.25;100719.72;5088242;28;20089;-28
2022/10/30 04:13:03;;;;;;;30.52;16.83;;;;;;;5.55;74.46;100726.53;5088775;28;20032;-26
2022/10/30 04:15:28;;;;;;;25.58;14.20;;;;;;;5.60;73.26;100724.22;5088937;28;20488;-26
2022/10/30 04:17:54;;;;;;;26.15;14.20;;;;;;;5.32;75.06;100744.13;5088508;28;20032;-28
2022/10/30 04:20:21;;;;;;;37.33;17.42;;;;;;;5.57;73.40;100753.63;5088252;28;20027;-27
2022/10/30 04:22:46;;;;;;;44.63;18.83;;;;;;;5.20;71.20;100731.22;5088473;28;20036;-30
2022/10/30 04:25:12;;;;;;;50.08;22.42;;;;;;;5.09;70.57;100728.94;5069991;28;20024;-25
2022/10/30 04:27:42;;;;;;;54.42;23.35;;;;;;;4.35;71.90;100743.88;5088402;28;20024;-26
2022/10/30 04:30:09;;;;;;;53.88;22.10;;;;;;;4.39;71.81;100738.16;5088513;28;20034;-26
2022/10/30 04:32:35;;;;;;;49.60;21.42;;;;;;;4.28;73.30;100754.28;5069645;28;20119;-28
2022/10/30 04:35:00;;;;;;;48.38;19.85;;;;;;;4.75;72.58;100737.03;5070058;28;20105;-25
2022/10/30 04:37:26;;;;;;;43.10;17.00;;;;;;;5.12;72.62;100733.88;5088268;28;20054;-26
2022/10/30 04:39:51;;;;;;;30.25;14.40;;;;;;;5.31;72.30;100753.03;5087986;28;20035;-26
2022/10/30 04:42:16;;;;;;;21.42;11.88;;;;;;;5.04;73.16;100729.41;5069974;28;20043;-25
2022/10/30 04:44:42;;;;;;;26.55;12.65;;;;;;;4.77;74.44;100757.00;5087084;28;20028;-26
2022/10/30 04:47:07;;;;;;;37.22;17.05;;;;;;;4.83;73.06;100756.34;5088241;28;20111;-25
2022/10/30 04:49:33;;;;;;;39.17;16.92;;;;;;;4.62;72.02;100754.19;5088158;28;20519;-25
2022/10/30 04:51:58;;;;;;;33.17;15.73;;;;;;;4.67;71.51;100751.06;5088093;28;20046;-27
2022/10/30 04:54:24;;;;;;;40.70;15.90;;;;;;;4.88;70.84;100715.38;5087410;28;21005;-26
2022/10/30 04:56:49;;;;;;;33.63;14.55;;;;;;;4.86;72.95;100730.59;5088154;28;20112;-26
2022/10/30 04:59:14;;;;;;;29.17;13.43;;;;;;;4.94;73.15;100760.47;5086476;28;20411;-29
2022/10/30 05:01:40;;;;;;;33.15;14.32;;;;;;;5.13;72.37;100761.13;5087661;28;20028;-29
2022/10/30 05:04:05;;;;;;;24.80;11.18;;;;;;;5.29;72.67;100760.31;5087898;28;20524;-27
2022/10/30 05:06:32;;;;;;;31.70;11.85;;;;;;;5.47;72.85;100765.41;5087803;28;20048;-26
2022/10/30 05:08:58;;;;;;;23.67;10.82;;;;;;;5.08;74.54;100769.56;5087575;28;20027;-25
2022/10/30 05:11:23;;;;;;;28.75;12.88;;;;;;;5.20;74.76;100770.88;5087597;28;20053;-26
2022/10/30 05:13:49;;;;;;;23.70;11.98;;;;;;;5.52;73.78;100777.16;5069460;28;20141;-27
2022/10/30 05:16:14;;;;;;;17.20;10.55;;;;;;;5.59;72.88;100762.22;5069098;28;20035;-26
2022/10/30 05:18:39;;;;;;;20.83;10.48;;;;;;;5.32;74.99;100770.56;5087410;28;20105;-29
2022/10/30 05:21:05;;;;;;;19.13;9.90;;;;;;;5.17;75.15;100763.31;5087334;28;20036;-25
2022/10/30 05:23:31;;;;;;;15.75;9.88;;;;;;;5.47;74.84;100779.47;5068941;28;20081;-31
2022/10/30 05:25:58;;;;;;;21.55;11.05;;;;;;;5.44;74.27;100756.00;5087467;28;20088;-28
2022/10/30 05:28:23;;;;;;;23.73;12.40;;;;;;;5.74;72.90;100753.59;5085734;28;20061;-28
2022/10/30 05:30:52;;;;;;;30.40;12.88;;;;;;;5.80;72.04;100758.22;5069127;28;20485;-26
2022/10/30 05:33:17;;;;;;;21.27;12.98;;;;;;;5.63;74.11;100774.13;5069009;28;20035;-25
2022/10/30 05:35:43;;;;;;;24.80;12.32;;;;;;;5.36;75.61;100772.69;5087277;28;20551;-25
2022/10/30 05:38:09;;;;;;;30.02;14.07;;;;;;;5.66;74.22;100780.94;5068696;28;20028;-26
2022/10/30 05:40:34;;;;;;;33.47;15.60;;;;;;;6.07;72.57;100772.03;5068712;28;20031;-29
2022/10/30 05:43:00;;;;;;;47.20;20.42;;;;;;;5.98;72.06;100761.47;5087280;28;20020;-25
2022/10/30 05:45:25;;;;;;;38.88;18.23;;;;;;;6.23;72.06;100770.16;5087111;28;20077;-26
2022/10/30 05:48:03;;;;;;;23.13;12.23;;;;;;;6.21;74.41;100740.38;5087151;28;20105;-27
2022/10/30 05:50:29;;;;;;;17.65;11.43;;;;;;;6.82;73.29;100774.09;5086551;28;20032;-26
2022/10/30 05:52:59;;;;;;;20.20;10.38;;;;;;;6.84;73.05;100761.50;5089726;28;20081;-26
2022/10/30 05:55:25;;;;;;;21.80;11.45;;;;;;;6.93;72.87;100754.31;5091208;28;20042;-26
2022/10/30 05:57:55;;;;;;;21.27;11.75;;;;;;;7.07;73.38;100766.81;5091158;28;20020;-26
2022/10/30 06:00:21;;;;;;;18.08;12.05;;;;;;;7.20;73.71;100772.31;5072248;28;20034;-26
2022/10/30 06:02:46;;;;;;;17.30;10.43;;;;;;;7.00;74.14;100753.41;5091032;28;20453;-29
2022/10/30 06:05:12;;;;;;;20.35;11.98;;;;;;;7.31;73.66;100772.88;5090788;28;20055;-26
2022/10/30 06:07:37;;;;;;;23.15;11.18;;;;;;;7.30;73.76;100776.56;5091061;28;20027;-26
2022/10/30 06:10:03;;;;;;;19.02;11.60;;;;;;;7.43;73.94;100771.44;5091244;28;20127;-26
2022/10/30 06:12:28;;;;;;;20.15;11.45;;;;;;;7.46;73.18;100749.88;5072284;28;20123;-28
2022/10/30 06:14:54;;;;;;;17.30;10.75;;;;;;;7.56;73.42;100750.41;5090968;28;20518;-25
2022/10/30 06:17:19;;;;;;;18.67;11.57;;;;;;;7.93;73.01;100772.56;5090942;28;20024;-26
2022/10/30 06:19:45;;;;;;;21.00;11.13;;;;;;;7.92;73.83;100780.72;5090743;28;20115;-25
2022/10/30 06:22:10;;;;;;;18.58;11.32;;;;;;;8.09;73.50;100770.72;5090746;28;20503;-27
2022/10/30 06:24:35;;;;;;;18.52;10.98;;;;;;;8.15;73.71;100781.44;5090472;28;20115;-29
2022/10/30 06:27:01;;;;;;;21.27;10.55;;;;;;;8.27;73.51;100773.81;5072338;28;20543;-28
2022/10/30 06:29:26;;;;;;;17.92;10.30;;;;;;;8.38;72.89;100760.03;5089506;28;20037;-28
2022/10/30 06:31:52;;;;;;;31.90;20.90;;;;;;;8.75;72.22;100776.81;5090988;28;20461;-28
2022/10/30 06:34:17;;;;;;;49.20;26.08;;;;;;;8.83;72.09;100778.53;5089862;28;20043;-28
2022/10/30 06:36:42;;;;;;;23.45;12.45;;;;;;;8.81;71.55;100754.78;5090484;28;20031;-31
2022/10/30 06:39:08;;;;;;;21.05;10.95;;;;;;;9.04;70.58;100764.41;5090413;28;20031;-27
2022/10/30 06:41:33;;;;;;;20.33;11.15;;;;;;;9.11;70.11;100764.47;5090302;28;20074;-26
2022/10/30 06:43:59;;;;;;;15.52;9.80;;;;;;;9.38;68.48;100771.66;5090344;28;20953;-27
2022/10/30 06:46:24;;;;;;;16.35;10.13;;;;;;;9.41;68.44;100775.75;5090142;28;20020;-27
2022/10/30 06:48:50;;;;;;;17.70;10.43;;;;;;;9.51;67.81;100760.25;5071475;28;20028;-28
2022/10/30 06:51:15;;;;;;;17.10;10.90;;;;;;;9.71;66.59;100770.22;5072140;28;20024;-26
2022/10/30 06:53:41;;;;;;;19.65;11.38;;;;;;;9.67;67.00;100768.97;5090564;28;20710;-26
2022/10/30 06:56:08;;;;;;;19.38;13.85;;;;;;;9.90;66.16;100760.69;5090116;28;20552;-27
2022/10/30 06:58:37;;;;;;;19.80;12.32;;;;;;;9.98;66.38;100763.19;5071508;28;20032;-26
2022/10/30 07:01:04;;;;;;;18.95;10.55;;;;;;;10.42;64.52;100754.78;5089921;28;20032;-27
2022/10/30 07:03:30;;;;;;;16.80;11.43;;;;;;;10.25;65.39;100745.47;5089420;28;20043;-30
2022/10/30 07:05:55;;;;;;;57.78;32.22;;;;;;;10.53;64.36;100752.56;5089537;28;20036;-26
2022/10/30 07:08:21;;;;;;;17.35;11.20;;;;;;;10.76;64.03;100757.53;5088567;28;20059;-26
2022/10/30 07:10:46;;;;;;;16.23;9.88;;;;;;;11.09;63.60;100749.53;5089927;28;20055;-26
2022/10/30 07:13:11;;;;;;;16.02;10.10;;;;;;;11.18;63.94;100750.97;5089892;28;20027;-26
2022/10/30 07:15:37;;;;;;;18.55;9.38;;;;;;;11.35;62.24;100745.22;5089709;28;20820;-26
2022/10/30 07:18:03;;;;;;;15.98;9.80;;;;;;;11.51;62.36;100744.78;5089739;28;20024;-26
2022/10/30 07:20:31;;;;;;;15.02;9.98;;;;;;;11.68;61.41;100720.28;5089364;28;20048;-26
2022/10/30 07:22:56;;;;;;;15.70;8.65;;;;;;;12.16;59.88;100736.00;5089472;28;20020;-25
2022/10/30 07:25:22;;;;;;;15.18;9.18;;;;;;;12.26;60.52;100731.00;5089672;28;20039;-26
2022/10/30 07:27:49;;;;;;;17.00;10.35;;;;;;;12.28;59.94;100728.94;5089648;28;20024;-26
2022/10/30 07:30:17;;;;;;;15.15;8.55;;;;;;;12.50;59.06;100726.72;5089178;28;20114;-30
2022/10/30 07:32:43;;;;;;;12.82;8.70;;;;;;;12.67;58.68;100727.06;5070603;28;20122;-27
2022/10/30 07:35:11;;;;;;;13.02;8.43;;;;;;;13.03;58.17;100739.72;5089942;28;20531;-29
2022/10/30 07:37:36;;;;;;;15.68;7.85;;;;;;;13.09;57.71;100718.50;5089470;28;20108;-25
2022/10/30 07:40:02;;;;;;;12.23;7.85;;;;;;;13.32;57.75;100731.28;5089402;28;20107;-26
2022/10/30 07:42:28;;;;;;;13.93;7.72;;;;;;;13.36;57.00;100729.81;5088707;28;20020;-27
2022/10/30 07:44:53;;;;;;;12.25;7.90;;;;;;;13.61;56.51;100722.53;5070836;28;20035;-26
2022/10/30 07:47:19;;;;;;;12.88;8.57;;;;;;;13.88;56.35;100727.59;5070598;28;20032;-29
2022/10/30 07:49:44;;;;;;;11.25;7.72;;;;;;;14.06;55.60;100708.81;5070762;28;20128;-28
2022/10/30 07:52:09;;;;;;;11.57;6.72;;;;;;;14.01;54.27;100703.28;5088876;28;20565;-27
2022/10/30 07:54:35;;;;;;;11.32;6.75;;;;;;;14.39;54.42;100715.59;5088540;28;20028;-25
2022/10/30 07:57:02;;;;;;;10.20;6.10;;;;;;;14.77;53.44;100714.47;5070573;28;20029;-28
2022/10/30 07:59:27;;;;;;;9.18;6.20;;;;;;;14.72;53.12;100706.25;5088724;28;20567;-27
2022/10/30 08:01:53;;;;;;;11.85;6.28;;;;;;;14.83;53.66;100694.75;5088522;28;20052;-27
2022/10/30 08:04:18;;;;;;;15.48;6.63;;;;;;;14.96;53.12;100706.31;5088556;28;20035;-26
2022/10/30 08:06:43;;;;;;;10.40;6.25;;;;;;;15.05;52.80;100686.91;5088588;28;20048;-26
2022/10/30 08:09:09;;;;;;;10.25;6.50;;;;;;;15.19;52.87;100684.00;5088635;28;20020;-29
2022/10/30 08:11:34;;;;;;;12.32;6.30;;;;;;;15.14;53.10;100687.41;5088540;28;20097;-28
2022/10/30 08:14:00;;;;;;;13.18;7.30;;;;;;;15.14;54.07;100673.97;5070128;28;20107;-27
2022/10/30 08:16:26;;;;;;;12.45;7.25;;;;;;;15.53;52.75;100701.16;5087590;28;20032;-27
2022/10/30 08:18:51;;;;;;;10.70;6.88;;;;;;;15.61;52.52;100697.25;5088734;28;20109;-27
2022/10/30 08:21:17;;;;;;;11.95;7.13;;;;;;;15.75;52.40;100687.94;5070221;28;20028;-26
2022/10/30 08:23:42;;;;;;;9.65;7.05;;;;;;;15.97;52.79;100680.00;5088323;28;20409;-25
2022/10/30 08:26:07;;;;;;;9.98;6.97;;;;;;;16.18;51.97;100683.94;5088260;28;20028;-26
2022/10/30 08:28:33;;;;;;;10.35;6.70;;;;;;;16.21;51.72;100669.16;5069686;28;20035;-27
2022/10/30 08:30:59;;;;;;;13.25;7.35;;;;;;;16.42;51.70;100676.53;5088035;28;20032;-26
2022/10/30 08:33:25;;;;;;;11.38;6.85;;;;;;;16.82;50.58;100672.94;5088278;28;20117;-30
2022/10/30 08:35:52;;;;;;;9.43;6.80;;;;;;;16.98;50.02;100675.84;5088496;28;20058;-31
2022/10/30 08:38:18;;;;;;;9.77;6.67;;;;;;;16.94;49.88;100672.84;5087909;28;20592;-28
2022/10/30 08:40:44;;;;;;;11.15;7.40;;;;;;;16.93;49.82;100662.31;5088219;28;20285;-27
2022/10/30 08:43:09;;;;;;;11.48;7.07;;;;;;;17.09;49.53;100679.53;5088014;28;20028;-25
2022/10/30 08:45:35;;;;;;;13.82;8.30;;;;;;;17.33;49.75;100680.16;5087829;28;20024;-27
2022/10/30 08:48:03;;;;;;;10.68;6.32;;;;;;;17.60;48.13;100683.72;5069923;28;20040;-29
2022/10/30 08:50:30;;;;;;;10.70;7.90;;;;;;;17.84;48.63;100675.44;5087770;28;20051;-27
2022/10/30 08:52:59;;;;;;;12.27;6.78;;;;;;;17.92;47.90;100674.97;5069674;28;20071;-30
2022/10/30 08:55:25;;;;;;;10.88;6.88;;;;;;;18.29;47.48;100660.78;5069253;28;20023;-28
2022/10/30 08:57:50;;;;;;;9.27;6.30;;;;;;;18.10;46.77;100651.41;5087660;28;20024;-27
2022/10/30 09:00:15;;;;;;;11.88;7.35;;;;;;;18.51;46.74;100668.81;5069093;28;20028;-31
2022/10/30 09:02:41;;;;;;;12.48;7.80;;;;;;;18.60;45.62;100650.25;5069382;28;20173;-26
2022/10/30 09:05:07;;;;;;;8.70;6.25;;;;;;;18.85;45.34;100663.16;5087655;28;20055;-27
2022/10/30 09:07:34;;;;;;;9.35;5.80;;;;;;;18.94;44.88;100653.50;5087659;28;20471;-27
2022/10/30 09:10:00;;;;;;;12.00;6.65;;;;;;;19.10;44.59;100654.41;5087642;28;20059;-28
2022/10/30 09:12:25;;;;;;;10.68;6.00;;;;;;;19.03;44.95;100634.91;5087120;28;20153;-28
2022/10/30 09:14:51;;;;;;;10.27;5.40;;;;;;;19.23;44.08;100648.53;5087157;28;20032;-33
2022/10/30 09:17:16;;;;;;;9.90;4.85;;;;;;;19.31;42.96;100632.88;5087493;28;20035;-28
2022/10/30 09:19:42;;;;;;;7.68;4.95;;;;;;;19.23;43.24;100632.31;5087436;28;20088;-27
2022/10/30 09:22:07;;;;;;;9.75;5.25;;;;;;;19.52;42.82;100629.19;5087308;28;20020;-27
2022/10/30 09:24:32;;;;;;;9.57;5.13;;;;;;;19.88;42.65;100632.06;5087067;28;20024;-30
2022/10/30 09:26:58;;;;;;;12.13;5.38;;;;;;;19.92;42.08;100633.16;5087253;28;20106;-29
2022/10/30 09:29:23;;;;;;;6.88;4.40;;;;;;;19.81;41.32;100607.13;5086920;28;20067;-26
2022/10/30 09:31:49;;;;;;;9.85;4.38;;;;;;;19.81;41.24;100615.25;5069334;28;20031;-28
2022/10/30 09:34:14;;;;;;;11.05;4.70;;;;;;;19.89;40.99;100619.31;5086906;28;20563;-30
2022/10/30 09:36:42;;;;;;;8.73;4.20;;;;;;;20.04;40.88;100614.75;5087358;28;20031;-28
2022/10/30 09:39:08;;;;;;;;;;;;;;;20.44;40.33;100617.75;5086364;28;20122;-26
2022/10/30 09:42:07;;;;;;;7.57;4.20;;;;;;;20.29;41.44;100610.44;5086658;28;20002;-27
2022/10/30 09:44:53;;;;;;;9.05;4.43;;;;;;;20.25;39.31;100618.28;5086227;28;20036;-27
2022/10/30 09:47:41;;;;;;;8.93;3.78;;;;;;;20.33;39.90;100611.53;5086960;28;20060;-26
2022/10/30 09:50:09;;;;;;;7.15;4.13;;;;;;;20.57;39.92;100597.44;5057651;28;20071;-29
2022/10/30 09:52:50;;;;;;;8.13;3.90;;;;;;;20.91;37.94;100602.28;5086865;28;20028;-27
2022/10/30 09:55:33;;;;;;;9.68;4.22;;;;;;;20.59;39.06;100587.16;5087189;28;20039;-32
2022/10/30 09:58:13;;;;;;;8.27;3.85;;;;;;;21.02;39.17;100584.91;5086956;28;20032;-25
2022/10/30 10:00:49;;;;;;;11.00;3.90;;;;;;;21.06;37.99;100603.06;5086327;28;20035;-29
2022/10/30 10:03:20;;;;;;;8.43;4.25;;;;;;;21.25;38.75;100597.03;5068846;28;20127;-26
2022/10/30 10:05:55;;;;;;;7.32;3.70;;;;;;;21.22;37.31;100594.88;5086867;28;20068;-29
2022/10/30 10:08:38;;;;;;;7.90;4.15;;;;;;;21.21;36.71;100599.50;5068396;28;20716;-27
2022/10/30 10:11:17;;;;;;;7.38;4.53;;;;;;;21.29;37.78;100579.13;5086716;28;20055;-30
2022/10/30 10:13:51;;;;;;;7.45;4.10;;;;;;;21.98;36.44;100573.84;5086903;28;20558;-27
2022/10/30 10:16:19;;;;;;;9.88;5.15;;;;;;;21.75;36.51;100580.81;5086571;28;20025;-27
2022/10/30 10:18:56;;;;;;;8.13;3.80;;;;;;;21.81;36.05;100574.25;5086932;28;20088;-27
2022/10/30 10:21:26;;;;;;;10.80;4.90;;;;;;;22.03;37.94;100574.63;5068480;28;20403;-28
2022/10/30 10:23:58;;;;;;;7.55;4.38;;;;;;;22.64;37.16;100558.94;5086311;28;20407;-28
2022/10/30 10:26:47;;;;;;;7.88;4.10;;;;;;;22.72;34.59;100565.63;5086216;28;20032;-32
2022/10/30 10:29:19;;;;;;;10.95;4.22;;;;;;;22.79;35.18;100556.03;5068141;28;20385;-33
2022/10/30 10:32:29;;;;;;;6.20;3.95;;;;;;;22.84;34.58;100528.81;5076251;28;20083;-29
2022/10/30 10:35:13;;;;;;;7.90;4.50;;;;;;;23.14;33.79;100545.06;5025076;28;20545;-31
2022/10/30 10:38:03;;;;;;;9.00;4.15;;;;;;;22.50;34.67;100536.25;5067820;28;20457;-29
2022/10/30 10:40:38;;;;;;;5.90;3.97;;;;;;;22.89;34.39;100522.50;5051965;28;20563;-29
2022/10/30 10:43:22;;;;;;;10.93;4.63;;;;;;;23.07;33.64;100531.84;5070059;28;20064;-32
2022/10/30 10:46:09;;;;;;;9.85;4.47;;;;;;;23.50;32.81;100518.19;5070071;28;20524;-27
2022/10/30 10:48:40;;;;;;;10.00;3.95;;;;;;;23.49;33.14;100519.28;5069450;28;20036;-26
2022/10/30 10:51:10;;;;;;;7.60;4.00;;;;;;;23.65;33.17;100506.25;5069698;28;20016;-27
2022/10/30 10:53:47;;;;;;;8.27;3.97;;;;;;;23.81;31.81;100509.59;5051718;28;20451;-28
2022/10/30 10:56:13;;;;;;;12.07;4.87;;;;;;;23.92;31.64;100510.22;5069977;28;20032;-30
2022/10/30 10:58:58;;;;;;;11.75;4.57;;;;;;;24.03;31.25;100485.25;5051090;28;20298;-29
2022/10/30 11:01:38;;;;;;;6.32;3.88;;;;;;;24.05;31.14;100480.31;5035160;28;20044;-29
2022/10/30 11:04:28;;;;;;;11.25;4.10;;;;;;;24.78;31.28;100501.59;5069654;28;20071;-31
2022/10/30 11:06:55;;;;;;;12.20;4.20;;;;;;;25.01;30.33;100497.84;5069033;28;20053;-30
2022/10/30 11:09:22;;;;;;;8.30;3.67;;;;;;;24.57;30.00;100482.13;5051228;28;20024;-28
2022/10/30 11:11:51;;;;;;;6.72;3.75;;;;;;;24.67;29.47;100487.38;5051586;28;20024;-27
2022/10/30 11:14:23;;;;;;;7.07;3.70;;;;;;;24.95;29.39;100479.19;5069308;28;20078;-27
2022/10/30 11:17:18;;;;;;;9.30;3.80;;;;;;;24.63;31.15;100470.00;5069742;28;20097;-30
2022/10/30 11:19:47;;;;;;;7.28;3.67;;;;;;;25.06;30.01;100483.28;5051123;28;20715;-31
2022/10/30 11:22:30;;;;;;;8.57;3.70;;;;;;;25.25;29.56;100464.91;5069293;28;20028;-28
2022/10/30 11:25:17;;;;;;;9.32;4.40;;;;;;;25.39;27.96;100461.31;5051309;28;20039;-30